• Join FlightAware (Why Join?)
  • Login
  • US Flag 
02:58PM EDT


 

Airport Tracker/Info


-or-


 

Live Flight TrackerFlight Track Log ✈ KAP550 ✈ 06-May-2013 ✈ KALB - KMSS

Flight Track Log - Related Links

Times and Time Zones

All times are in EDT time to prevent confusion due to time zone crossing. See the KAP550 flight status page for this flight to view local times or setup timezone preferences in your user account.

Time Position Orientation Groundspeed Altitude Reporting Facility
EDT Latitude Longitude Course Direction KTS MPH feet Rate Location/Type
06:17PM 42.7089 -73.8189 286° West 109 125 1,800  Level Boston Center
06:18PM 42.7186 -73.8644 286° West 132 152 2,900 840 Climbing Boston Center
06:20PM 42.7638 -73.8579 North  Level FlightAware Approximate
06:21PM 42.8219 -73.9319 North 153 176 5,400  Level Boston Center
06:22PM 42.8636 -73.9469 345° North 143 165 6,000 600 Climbing Boston Center
06:24PM 42.9156 -73.9567 352° North 153 176 6,900 420 Climbing Boston Center
06:25PM 42.9528 -73.9719 343° North 163 188 7,100 180 Climbing Boston Center
06:26PM 42.9983 -73.9931 341° North 168 193 7,300 180 Climbing Boston Center
06:27PM 43.0311 -73.9754 North  Level Estimated
06:27PM 43.0461 -74.0139 342° North 171 197 7,500  Level Boston Center
06:28PM 43.0894 -74.0350 340° North 172 198 7,800 240 Climbing Boston Center
06:29PM 43.1331 -74.0503 346° North 174 200 8,100 240 Climbing Boston Center
06:30PM 43.1828 -74.0717 343° North 174 200 8,400 180 Climbing Boston Center
06:31PM 43.2242 -74.0897 342° North 169 194 8,500  Climbing Boston Center
06:32PM 43.2800 -74.1142 342° North 169 194 8,500  Level Boston Center
06:33PM 43.3256 -74.1325 344° North 183 211 8,500  Level Boston Center
06:34PM 43.3775 -74.1569 341° North 184 212 8,500  Level Boston Center
06:35PM 43.4272 -74.1783 343° North 184 212 8,500  Level Boston Center
06:36PM 43.4747 -74.1967 344° North 184 212 8,500  Level Boston Center
06:37PM 43.5264 -74.2211 341° North 184 212 8,500  Level Boston Center
06:39PM 43.6044 -74.2538 343° North  Level FlightAware Approximate
06:39PM 43.6217 -74.2614 343° North 184 212 8,500  Level Boston Center
06:40PM 43.6672 -74.2828 341° North 184 212 8,500  Level Boston Center
06:41PM 43.7108 -74.2983 346° North 178 205 8,500  Level Boston Center
06:42PM 43.7583 -74.3231 339° North 178 205 8,500  Level Boston Center
06:43PM 43.8081 -74.3417 345° North 173 199 8,500  Level Boston Center
06:44PM 43.8536 -74.3606 343° North 173 199 8,500  Level Boston Center
06:45PM 43.9031 -74.3822 342° North 178 205 8,500  Level Boston Center
06:46PM 43.9508 -74.4039 342° North 178 205 8,500  Level Boston Center
06:47PM 43.9900 -74.4197 344° North 178 205 8,500 -60 Level Boston Center
06:48PM 44.0481 -74.4475 341° North 183 211 8,400  Descending Boston Center
06:49PM 44.0956 -74.4694 342° North 183 211 8,500  Climbing Boston Center
06:50PM 44.1431 -74.4914 342° North 183 211 8,500  Level Boston Center
06:51PM 44.1906 -74.5103 344° North 183 211 8,500  Level Boston Center
06:53PM 44.2712 -74.5422 344° North  Level FlightAware Approximate
06:54PM 44.3372 -74.5764 344° North 183 211 8,500  Level Boston Center
06:55PM 44.3892 -74.5986 343° North 183 211 8,300 -420 Descending Boston Center
06:56PM 44.4447 -74.6239 342° North 190 219 7,700 -660 Descending Boston Center
06:58PM 44.5245 -74.6608 343° North  Level FlightAware Approximate
07:00PM 44.6575 -74.7194 345° North 208 239 5,000  Level Boston Center
07:05PM 44.8418 -74.7990 345° North  Level FlightAware Approximate